LFMT Airport Information

Runway Information
Runway 12L Length 8530 ft width 164 ft
Elevation 17 ft Threshold 0 ft Heading 124
Runway 30R Length 8530 ft Width 164 ft
Elevation 6 ft Threshold 0 ft Heading 304
Runway 12R Length 3609 ft width 98 ft
Elevation 10 ft Threshold 328 ft Heading 124
Runway 30L Length 3609 ft Width 98 ft
Elevation 7 ft Threshold 0 ft Heading 304
Airport Frequencies
Type APP Name MONTPELLIE Frequency 120.375 MHZ
Type ATIS Name MONTPELLIE Frequency 124.125 MHZ
Type GND Name MONTPELLIE Frequency 121.95 MHZ
Type TWR Name MONTPELLIE Frequency 118.2 MHZ
Type TWR Name MONTPELLIE Frequency 118.775 MHZ
Airport Navaids
Type VOR-DME Name Mediterranee Frequency 114450 KHZ
Airport Weather Information & NOTAM
ADDS - METARS form results

(1859 UTC 22 June 2018)
 
METAR text: LFMT 221830Z AUTO 02014KT CAVOK 26/04 Q1015 TEMPO 01018G30KT
Conditions at: LFMT (FREJORGUES/MONTP, FR) observed 1830 UTC 22 June 2018
Temperature: 26.0°C (79°F)
Dewpoint: 4.0°C (39°F) [RH = 24%]
Pressure (altimeter): 29.97 inches Hg (1015.0 mb)
Winds: from the NNE (20 degrees) at 16 MPH (14 knots; 7.3 m/s)
Visibility: 6 or more miles (10+ km)
Ceiling: ceiling and visibility are OK
Clouds: unknown
Weather: no significant weather observed at this time

METAR text: LFMT 221800Z AUTO 02014KT 8000 NSC 27/04 Q1015 TEMPO 01018G30KT
Conditions at: LFMT (FREJORGUES/MONTP, FR) observed 1800 UTC 22 June 2018
Temperature: 27.0°C (81°F)
Dewpoint: 4.0°C (39°F) [RH = 23%]
Pressure (altimeter): 29.97 inches Hg (1015.0 mb)
Winds: from the NNE (20 degrees) at 16 MPH (14 knots; 7.3 m/s)
Visibility: 5 miles (8 km)
Ceiling: at least 12,000 feet AGL
Clouds: sky clear below 12,000 feet AGL
Weather: no significant weather observed at this time